sensor_id;sensor_type;location;lat;lon;timestamp;P1;durP1;ratioP1;P2;durP2;ratioP2
17854;SDS011;9053;53.358;6.382;2023-07-22T00:00:29;2.30;;;1.67;;
17854;SDS011;9053;53.358;6.382;2023-07-22T00:02:58;3.53;;;1.48;;
17854;SDS011;9053;53.358;6.382;2023-07-22T00:05:29;2.30;;;1.30;;
17854;SDS011;9053;53.358;6.382;2023-07-22T00:08:01;3.45;;;1.60;;
17854;SDS011;9053;53.358;6.382;2023-07-22T00:10:31;3.45;;;1.85;;
17854;SDS011;9053;53.358;6.382;2023-07-22T00:13:01;3.30;;;1.70;;
17854;SDS011;9053;53.358;6.382;2023-07-22T00:15:31;1.98;;;1.58;;
17854;SDS011;9053;53.358;6.382;2023-07-22T00:18:01;3.10;;;1.63;;
17854;SDS011;9053;53.358;6.382;2023-07-22T00:20:31;1.58;;;1.40;;
17854;SDS011;9053;53.358;6.382;2023-07-22T00:23:04;2.10;;;1.75;;
17854;SDS011;9053;53.358;6.382;2023-07-22T00:25:33;1.98;;;1.42;;
17854;SDS011;9053;53.358;6.382;2023-07-22T00:28:03;3.47;;;1.58;;
17854;SDS011;9053;53.358;6.382;2023-07-22T00:30:33;2.83;;;1.30;;
17854;SDS011;9053;53.358;6.382;2023-07-22T00:33:04;2.38;;;1.50;;
17854;SDS011;9053;53.358;6.382;2023-07-22T00:35:34;1.83;;;1.40;;
17854;SDS011;9053;53.358;6.382;2023-07-22T00:38:07;2.42;;;1.30;;
17854;SDS011;9053;53.358;6.382;2023-07-22T00:40:38;3.13;;;1.55;;
17854;SDS011;9053;53.358;6.382;2023-07-22T00:43:08;3.13;;;1.70;;
17854;SDS011;9053;53.358;6.382;2023-07-22T00:45:38;3.08;;;1.45;;
17854;SDS011;9053;53.358;6.382;2023-07-22T00:48:08;4.35;;;2.03;;
17854;SDS011;9053;53.358;6.382;2023-07-22T00:50:39;2.38;;;1.63;;
17854;SDS011;9053;53.358;6.382;2023-07-22T00:53:12;3.47;;;1.80;;
17854;SDS011;9053;53.358;6.382;2023-07-22T00:55:45;2.55;;;1.67;;
17854;SDS011;9053;53.358;6.382;2023-07-22T00:58:19;2.60;;;1.60;;
17854;SDS011;9053;53.358;6.382;2023-07-22T01:00:51;3.22;;;2.03;;
17854;SDS011;9053;53.358;6.382;2023-07-22T01:03:21;3.10;;;1.75;;
17854;SDS011;9053;53.358;6.382;2023-07-22T01:05:51;2.63;;;1.70;;
17854;SDS011;9053;53.358;6.382;2023-07-22T01:08:26;2.42;;;1.42;;
17854;SDS011;9053;53.358;6.382;2023-07-22T01:10:56;2.08;;;1.83;;
17854;SDS011;9053;53.358;6.382;2023-07-22T01:13:26;2.60;;;1.40;;
17854;SDS011;9053;53.358;6.382;2023-07-22T01:15:56;2.38;;;1.63;;
17854;SDS011;9053;53.358;6.382;2023-07-22T01:18:26;2.47;;;1.70;;
17854;SDS011;9053;53.358;6.382;2023-07-22T01:20:57;2.47;;;1.50;;
17854;SDS011;9053;53.358;6.382;2023-07-22T01:23:30;3.08;;;1.70;;
17854;SDS011;9053;53.358;6.382;2023-07-22T01:26:00;1.88;;;1.50;;
17854;SDS011;9053;53.358;6.382;2023-07-22T01:28:34;2.30;;;1.77;;
17854;SDS011;9053;53.358;6.382;2023-07-22T01:31:04;4.05;;;1.52;;
17854;SDS011;9053;53.358;6.382;2023-07-22T01:33:34;2.45;;;1.90;;
17854;SDS011;9053;53.358;6.382;2023-07-22T01:36:04;2.00;;;1.50;;
17854;SDS011;9053;53.358;6.382;2023-07-22T01:38:37;3.33;;;1.80;;
17854;SDS011;9053;53.358;6.382;2023-07-22T01:41:07;2.00;;;1.50;;
17854;SDS011;9053;53.358;6.382;2023-07-22T01:43:37;2.85;;;1.70;;
17854;SDS011;9053;53.358;6.382;2023-07-22T01:46:07;2.45;;;1.77;;
17854;SDS011;9053;53.358;6.382;2023-07-22T01:48:38;1.92;;;1.55;;
17854;SDS011;9053;53.358;6.382;2023-07-22T01:51:09;3.75;;;1.83;;
17854;SDS011;9053;53.358;6.382;2023-07-22T01:53:41;1.92;;;1.70;;
17854;SDS011;9053;53.358;6.382;2023-07-22T01:56:12;3.53;;;1.60;;
17854;SDS011;9053;53.358;6.382;2023-07-22T01:58:43;2.92;;;1.90;;
17854;SDS011;9053;53.358;6.382;2023-07-22T02:01:12;6.93;;;1.98;;
17854;SDS011;9053;53.358;6.382;2023-07-22T02:03:43;3.40;;;1.95;;
17854;SDS011;9053;53.358;6.382;2023-07-22T02:06:13;1.90;;;1.60;;
17854;SDS011;9053;53.358;6.382;2023-07-22T02:08:46;1.80;;;1.50;;
17854;SDS011;9053;53.358;6.382;2023-07-22T02:11:16;2.30;;;1.50;;
17854;SDS011;9053;53.358;6.382;2023-07-22T02:13:46;3.28;;;1.60;;
17854;SDS011;9053;53.358;6.382;2023-07-22T02:16:16;2.20;;;1.50;;
17854;SDS011;9053;53.358;6.382;2023-07-22T02:18:47;2.30;;;1.55;;
17854;SDS011;9053;53.358;6.382;2023-07-22T02:21:16;2.78;;;1.95;;
17854;SDS011;9053;53.358;6.382;2023-07-22T02:23:49;1.88;;;1.48;;
17854;SDS011;9053;53.358;6.382;2023-07-22T02:26:19;2.13;;;1.40;;
17854;SDS011;9053;53.358;6.382;2023-07-22T02:28:49;4.45;;;1.90;;
17854;SDS011;9053;53.358;6.382;2023-07-22T02:31:19;2.05;;;1.70;;
17854;SDS011;9053;53.358;6.382;2023-07-22T02:33:49;2.38;;;1.90;;
17854;SDS011;9053;53.358;6.382;2023-07-22T02:36:19;4.38;;;2.03;;
17854;SDS011;9053;53.358;6.382;2023-07-22T02:38:55;2.10;;;1.77;;
17854;SDS011;9053;53.358;6.382;2023-07-22T02:41:24;3.53;;;1.77;;
17854;SDS011;9053;53.358;6.382;2023-07-22T02:43:54;2.45;;;1.70;;
17854;SDS011;9053;53.358;6.382;2023-07-22T02:46:24;2.55;;;2.00;;
17854;SDS011;9053;53.358;6.382;2023-07-22T02:48:55;4.38;;;2.30;;
17854;SDS011;9053;53.358;6.382;2023-07-22T02:51:25;4.72;;;2.50;;
17854;SDS011;9053;53.358;6.382;2023-07-22T02:53:58;3.85;;;2.47;;
17854;SDS011;9053;53.358;6.382;2023-07-22T02:56:29;2.47;;;2.00;;
17854;SDS011;9053;53.358;6.382;2023-07-22T02:59:00;4.00;;;2.35;;
17854;SDS011;9053;53.358;6.382;2023-07-22T03:01:30;3.85;;;2.28;;
17854;SDS011;9053;53.358;6.382;2023-07-22T03:04:00;3.10;;;2.20;;
17854;SDS011;9053;53.358;6.382;2023-07-22T03:06:30;4.18;;;2.08;;
17854;SDS011;9053;53.358;6.382;2023-07-22T03:09:03;3.88;;;2.20;;
17854;SDS011;9053;53.358;6.382;2023-07-22T03:11:33;4.05;;;2.92;;
17854;SDS011;9053;53.358;6.382;2023-07-22T03:14:03;3.20;;;2.13;;
17854;SDS011;9053;53.358;6.382;2023-07-22T03:16:33;5.93;;;2.70;;
17854;SDS011;9053;53.358;6.382;2023-07-22T03:19:03;3.30;;;2.35;;
17854;SDS011;9053;53.358;6.382;2023-07-22T03:21:32;2.65;;;2.10;;
17854;SDS011;9053;53.358;6.382;2023-07-22T03:24:05;4.38;;;2.08;;
17854;SDS011;9053;53.358;6.382;2023-07-22T03:26:35;3.40;;;2.38;;
17854;SDS011;9053;53.358;6.382;2023-07-22T03:29:05;4.70;;;2.40;;
17854;SDS011;9053;53.358;6.382;2023-07-22T03:31:35;2.65;;;2.30;;
17854;SDS011;9053;53.358;6.382;2023-07-22T03:34:05;2.95;;;2.08;;
17854;SDS011;9053;53.358;6.382;2023-07-22T03:36:35;3.83;;;2.28;;
17854;SDS011;9053;53.358;6.382;2023-07-22T03:39:08;3.85;;;2.25;;
17854;SDS011;9053;53.358;6.382;2023-07-22T03:41:38;4.80;;;2.30;;
17854;SDS011;9053;53.358;6.382;2023-07-22T03:44:07;4.80;;;2.60;;
17854;SDS011;9053;53.358;6.382;2023-07-22T03:46:38;3.92;;;2.42;;
17854;SDS011;9053;53.358;6.382;2023-07-22T03:49:08;3.22;;;2.15;;
17854;SDS011;9053;53.358;6.382;2023-07-22T03:51:38;3.70;;;2.38;;
17854;SDS011;9053;53.358;6.382;2023-07-22T03:54:10;5.32;;;2.63;;
17854;SDS011;9053;53.358;6.382;2023-07-22T03:56:42;9.05;;;4.30;;
17854;SDS011;9053;53.358;6.382;2023-07-22T03:59:13;3.22;;;2.28;;
17854;SDS011;9053;53.358;6.382;2023-07-22T04:01:43;4.25;;;2.55;;
17854;SDS011;9053;53.358;6.382;2023-07-22T04:04:14;5.20;;;2.83;;
17854;SDS011;9053;53.358;6.382;2023-07-22T04:06:44;3.65;;;2.85;;
17854;SDS011;9053;53.358;6.382;2023-07-22T04:09:16;4.90;;;2.55;;
17854;SDS011;9053;53.358;6.382;2023-07-22T04:11:46;4.40;;;2.78;;
17854;SDS011;9053;53.358;6.382;2023-07-22T04:14:16;5.45;;;2.90;;
17854;SDS011;9053;53.358;6.382;2023-07-22T04:16:46;4.30;;;2.80;;
17854;SDS011;9053;53.358;6.382;2023-07-22T04:19:16;4.97;;;2.90;;
17854;SDS011;9053;53.358;6.382;2023-07-22T04:21:46;6.32;;;3.33;;
17854;SDS011;9053;53.358;6.382;2023-07-22T04:24:18;7.78;;;3.55;;
17854;SDS011;9053;53.358;6.382;2023-07-22T04:26:48;5.80;;;3.38;;
17854;SDS011;9053;53.358;6.382;2023-07-22T04:29:18;5.80;;;3.88;;
17854;SDS011;9053;53.358;6.382;2023-07-22T04:31:49;5.15;;;4.00;;
17854;SDS011;9053;53.358;6.382;2023-07-22T04:34:19;6.22;;;3.33;;
17854;SDS011;9053;53.358;6.382;2023-07-22T04:36:49;8.20;;;4.40;;
17854;SDS011;9053;53.358;6.382;2023-07-22T04:39:22;6.22;;;3.67;;
17854;SDS011;9053;53.358;6.382;2023-07-22T04:41:54;6.32;;;4.40;;
17854;SDS011;9053;53.358;6.382;2023-07-22T04:44:24;7.03;;;4.45;;
17854;SDS011;9053;53.358;6.382;2023-07-22T04:46:53;7.97;;;4.18;;
17854;SDS011;9053;53.358;6.382;2023-07-22T04:49:23;6.93;;;4.25;;
17854;SDS011;9053;53.358;6.382;2023-07-22T04:51:53;5.57;;;4.25;;
17854;SDS011;9053;53.358;6.382;2023-07-22T04:54:26;8.60;;;4.90;;
17854;SDS011;9053;53.358;6.382;2023-07-22T04:56:57;5.40;;;4.15;;
17854;SDS011;9053;53.358;6.382;2023-07-22T04:59:27;4.68;;;3.85;;
17854;SDS011;9053;53.358;6.382;2023-07-22T05:01:57;7.70;;;4.20;;
17854;SDS011;9053;53.358;6.382;2023-07-22T05:04:29;5.25;;;3.67;;
17854;SDS011;9053;53.358;6.382;2023-07-22T05:06:59;5.22;;;3.40;;
17854;SDS011;9053;53.358;6.382;2023-07-22T05:09:31;5.45;;;3.35;;
17854;SDS011;9053;53.358;6.382;2023-07-22T05:12:01;7.13;;;3.58;;
17854;SDS011;9053;53.358;6.382;2023-07-22T05:14:31;4.78;;;3.10;;
17854;SDS011;9053;53.358;6.382;2023-07-22T05:17:01;6.05;;;3.10;;
17854;SDS011;9053;53.358;6.382;2023-07-22T05:19:31;6.78;;;4.10;;
17854;SDS011;9053;53.358;6.382;2023-07-22T05:22:01;5.80;;;3.15;;
17854;SDS011;9053;53.358;6.382;2023-07-22T05:24:33;5.97;;;3.05;;
17854;SDS011;9053;53.358;6.382;2023-07-22T05:27:04;7.55;;;3.45;;
17854;SDS011;9053;53.358;6.382;2023-07-22T05:29:35;6.43;;;3.42;;
17854;SDS011;9053;53.358;6.382;2023-07-22T05:32:06;5.53;;;3.40;;
17854;SDS011;9053;53.358;6.382;2023-07-22T05:34:57;6.65;;;3.38;;
17854;SDS011;9053;53.358;6.382;2023-07-22T05:37:28;4.78;;;3.15;;
17854;SDS011;9053;53.358;6.382;2023-07-22T05:40:01;4.65;;;3.30;;
17854;SDS011;9053;53.358;6.382;2023-07-22T05:42:31;6.78;;;4.18;;
17854;SDS011;9053;53.358;6.382;2023-07-22T05:45:01;5.07;;;3.60;;
17854;SDS011;9053;53.358;6.382;2023-07-22T05:47:33;7.57;;;3.63;;
17854;SDS011;9053;53.358;6.382;2023-07-22T05:50:04;4.70;;;3.10;;
17854;SDS011;9053;53.358;6.382;2023-07-22T05:52:35;5.68;;;3.20;;
17854;SDS011;9053;53.358;6.382;2023-07-22T05:55:08;7.60;;;4.25;;
17854;SDS011;9053;53.358;6.382;2023-07-22T05:57:40;6.75;;;4.07;;
17854;SDS011;9053;53.358;6.382;2023-07-22T06:00:11;6.30;;;4.03;;
17854;SDS011;9053;53.358;6.382;2023-07-22T06:02:42;5.63;;;3.80;;
17854;SDS011;9053;53.358;6.382;2023-07-22T06:05:12;6.05;;;4.18;;
17854;SDS011;9053;53.358;6.382;2023-07-22T06:07:43;6.90;;;4.47;;
17854;SDS011;9053;53.358;6.382;2023-07-22T06:10:15;6.53;;;4.20;;
17854;SDS011;9053;53.358;6.382;2023-07-22T06:12:45;7.63;;;4.78;;
17854;SDS011;9053;53.358;6.382;2023-07-22T06:15:15;6.70;;;4.38;;
17854;SDS011;9053;53.358;6.382;2023-07-22T06:17:45;7.30;;;4.47;;
17854;SDS011;9053;53.358;6.382;2023-07-22T06:20:15;7.25;;;4.05;;
17854;SDS011;9053;53.358;6.382;2023-07-22T06:22:46;7.97;;;4.72;;
17854;SDS011;9053;53.358;6.382;2023-07-22T06:25:18;5.78;;;4.10;;
17854;SDS011;9053;53.358;6.382;2023-07-22T06:27:48;7.53;;;5.13;;
17854;SDS011;9053;53.358;6.382;2023-07-22T06:30:20;6.72;;;4.38;;
17854;SDS011;9053;53.358;6.382;2023-07-22T06:32:50;5.97;;;4.30;;
17854;SDS011;9053;53.358;6.382;2023-07-22T06:35:20;7.30;;;4.55;;
17854;SDS011;9053;53.358;6.382;2023-07-22T06:37:50;8.00;;;5.18;;
17854;SDS011;9053;53.358;6.382;2023-07-22T06:40:23;7.07;;;4.65;;
17854;SDS011;9053;53.358;6.382;2023-07-22T06:42:53;8.55;;;4.72;;
17854;SDS011;9053;53.358;6.382;2023-07-22T06:45:23;7.28;;;4.10;;
17854;SDS011;9053;53.358;6.382;2023-07-22T06:47:53;6.47;;;4.80;;
17854;SDS011;9053;53.358;6.382;2023-07-22T06:50:23;7.47;;;4.75;;
17854;SDS011;9053;53.358;6.382;2023-07-22T06:52:53;9.02;;;4.80;;
17854;SDS011;9053;53.358;6.382;2023-07-22T06:55:27;8.45;;;5.53;;
17854;SDS011;9053;53.358;6.382;2023-07-22T06:58:00;6.00;;;4.25;;
17854;SDS011;9053;53.358;6.382;2023-07-22T07:00:30;9.05;;;5.30;;
17854;SDS011;9053;53.358;6.382;2023-07-22T07:03:00;6.90;;;4.68;;
17854;SDS011;9053;53.358;6.382;2023-07-22T07:05:30;8.50;;;5.90;;
17854;SDS011;9053;53.358;6.382;2023-07-22T07:08:01;7.25;;;4.95;;
17854;SDS011;9053;53.358;6.382;2023-07-22T07:10:38;7.85;;;5.07;;
17854;SDS011;9053;53.358;6.382;2023-07-22T07:13:08;8.18;;;5.22;;
17854;SDS011;9053;53.358;6.382;2023-07-22T07:15:38;8.57;;;5.30;;
17854;SDS011;9053;53.358;6.382;2023-07-22T07:18:08;7.68;;;5.20;;
17854;SDS011;9053;53.358;6.382;2023-07-22T07:20:38;8.68;;;5.32;;
17854;SDS011;9053;53.358;6.382;2023-07-22T07:23:08;7.90;;;4.95;;
17854;SDS011;9053;53.358;6.382;2023-07-22T07:25:40;7.97;;;4.80;;
17854;SDS011;9053;53.358;6.382;2023-07-22T07:28:10;6.70;;;4.70;;
17854;SDS011;9053;53.358;6.382;2023-07-22T07:30:41;7.93;;;5.32;;
17854;SDS011;9053;53.358;6.382;2023-07-22T07:33:11;7.03;;;4.80;;
17854;SDS011;9053;53.358;6.382;2023-07-22T07:35:41;11.30;;;6.00;;
17854;SDS011;9053;53.358;6.382;2023-07-22T07:38:15;8.27;;;6.13;;
17854;SDS011;9053;53.358;6.382;2023-07-22T07:40:50;8.60;;;5.40;;
17854;SDS011;9053;53.358;6.382;2023-07-22T07:43:21;11.60;;;6.22;;
17854;SDS011;9053;53.358;6.382;2023-07-22T07:45:57;9.68;;;6.75;;
17854;SDS011;9053;53.358;6.382;2023-07-22T07:48:44;10.27;;;6.28;;
17854;SDS011;9053;53.358;6.382;2023-07-22T07:51:15;9.80;;;6.38;;
17854;SDS011;9053;53.358;6.382;2023-07-22T07:53:45;9.95;;;6.50;;
17854;SDS011;9053;53.358;6.382;2023-07-22T07:56:18;10.85;;;7.05;;
17854;SDS011;9053;53.358;6.382;2023-07-22T07:58:49;10.02;;;6.63;;
17854;SDS011;9053;53.358;6.382;2023-07-22T08:01:20;9.60;;;6.60;;
17854;SDS011;9053;53.358;6.382;2023-07-22T08:03:53;9.93;;;6.90;;
17854;SDS011;9053;53.358;6.382;2023-07-22T08:06:24;10.77;;;6.53;;
17854;SDS011;9053;53.358;6.382;2023-07-22T08:08:55;11.05;;;7.38;;
17854;SDS011;9053;53.358;6.382;2023-07-22T08:11:28;9.02;;;6.25;;
17854;SDS011;9053;53.358;6.382;2023-07-22T08:13:58;9.30;;;6.60;;
17854;SDS011;9053;53.358;6.382;2023-07-22T08:16:28;11.98;;;7.50;;
17854;SDS011;9053;53.358;6.382;2023-07-22T08:18:58;9.43;;;6.60;;
17854;SDS011;9053;53.358;6.382;2023-07-22T08:21:28;8.00;;;5.72;;
17854;SDS011;9053;53.358;6.382;2023-07-22T08:23:58;10.70;;;6.80;;
17854;SDS011;9053;53.358;6.382;2023-07-22T08:26:30;9.80;;;6.60;;
17854;SDS011;9053;53.358;6.382;2023-07-22T08:29:00;9.45;;;6.50;;
17854;SDS011;9053;53.358;6.382;2023-07-22T08:31:30;9.15;;;5.57;;
17854;SDS011;9053;53.358;6.382;2023-07-22T08:34:00;9.15;;;6.25;;
17854;SDS011;9053;53.358;6.382;2023-07-22T08:36:31;9.52;;;6.45;;
17854;SDS011;9053;53.358;6.382;2023-07-22T08:39:02;8.02;;;6.00;;
17854;SDS011;9053;53.358;6.382;2023-07-22T08:41:35;10.32;;;6.78;;
17854;SDS011;9053;53.358;6.382;2023-07-22T08:44:05;9.77;;;6.72;;
17854;SDS011;9053;53.358;6.382;2023-07-22T08:46:40;8.70;;;6.05;;
17854;SDS011;9053;53.358;6.382;2023-07-22T08:49:11;9.73;;;6.80;;
17854;SDS011;9053;53.358;6.382;2023-07-22T08:51:41;8.32;;;6.00;;
17854;SDS011;9053;53.358;6.382;2023-07-22T08:54:12;9.05;;;5.88;;
17854;SDS011;9053;53.358;6.382;2023-07-22T08:56:46;8.88;;;5.90;;
17854;SDS011;9053;53.358;6.382;2023-07-22T08:59:16;8.77;;;6.32;;
17854;SDS011;9053;53.358;6.382;2023-07-22T09:01:48;9.00;;;5.97;;
17854;SDS011;9053;53.358;6.382;2023-07-22T09:04:18;13.27;;;7.63;;
17854;SDS011;9053;53.358;6.382;2023-07-22T09:06:48;10.73;;;7.15;;
17854;SDS011;9053;53.358;6.382;2023-07-22T09:09:19;10.02;;;7.07;;
17854;SDS011;9053;53.358;6.382;2023-07-22T09:11:52;9.43;;;6.38;;
17854;SDS011;9053;53.358;6.382;2023-07-22T09:14:22;9.40;;;6.10;;
17854;SDS011;9053;53.358;6.382;2023-07-22T09:17:03;9.30;;;6.07;;
17854;SDS011;9053;53.358;6.382;2023-07-22T09:19:33;9.07;;;5.75;;
17854;SDS011;9053;53.358;6.382;2023-07-22T09:22:03;6.75;;;4.95;;
17854;SDS011;9053;53.358;6.382;2023-07-22T09:24:33;10.48;;;5.00;;
17854;SDS011;9053;53.358;6.382;2023-07-22T09:27:06;7.75;;;5.78;;
17854;SDS011;9053;53.358;6.382;2023-07-22T09:29:36;7.38;;;5.25;;
17854;SDS011;9053;53.358;6.382;2023-07-22T09:32:07;8.82;;;5.78;;
17854;SDS011;9053;53.358;6.382;2023-07-22T09:34:37;6.53;;;5.22;;
17854;SDS011;9053;53.358;6.382;2023-07-22T09:37:08;7.50;;;5.32;;
17854;SDS011;9053;53.358;6.382;2023-07-22T09:39:37;6.53;;;4.93;;
17854;SDS011;9053;53.358;6.382;2023-07-22T09:42:10;8.80;;;5.60;;
17854;SDS011;9053;53.358;6.382;2023-07-22T09:44:40;13.30;;;6.80;;
17854;SDS011;9053;53.358;6.382;2023-07-22T09:47:13;9.18;;;5.55;;
17854;SDS011;9053;53.358;6.382;2023-07-22T09:49:43;8.90;;;5.22;;
17854;SDS011;9053;53.358;6.382;2023-07-22T09:52:14;6.13;;;4.53;;
17854;SDS011;9053;53.358;6.382;2023-07-22T09:54:47;7.00;;;5.05;;
17854;SDS011;9053;53.358;6.382;2023-07-22T09:57:21;9.82;;;5.20;;
17854;SDS011;9053;53.358;6.382;2023-07-22T09:59:54;7.40;;;5.40;;
17854;SDS011;9053;53.358;6.382;2023-07-22T10:02:24;11.32;;;6.68;;
17854;SDS011;9053;53.358;6.382;2023-07-22T10:04:55;7.28;;;4.70;;
17854;SDS011;9053;53.358;6.382;2023-07-22T10:07:28;6.82;;;4.18;;
17854;SDS011;9053;53.358;6.382;2023-07-22T10:09:59;5.70;;;4.32;;
17854;SDS011;9053;53.358;6.382;2023-07-22T10:12:33;7.03;;;4.63;;
17854;SDS011;9053;53.358;6.382;2023-07-22T10:15:05;7.75;;;4.93;;
17854;SDS011;9053;53.358;6.382;2023-07-22T10:17:36;8.18;;;5.40;;
17854;SDS011;9053;53.358;6.382;2023-07-22T10:20:10;6.55;;;5.10;;
17854;SDS011;9053;53.358;6.382;2023-07-22T10:22:42;6.28;;;4.75;;
17854;SDS011;9053;53.358;6.382;2023-07-22T10:28:41;6.47;;;4.50;;
17854;SDS011;9053;53.358;6.382;2023-07-22T10:31:12;5.25;;;3.92;;
17854;SDS011;9053;53.358;6.382;2023-07-22T10:33:45;5.63;;;4.45;;
17854;SDS011;9053;53.358;6.382;2023-07-22T10:36:16;6.68;;;4.82;;
17854;SDS011;9053;53.358;6.382;2023-07-22T10:38:54;6.63;;;4.60;;
17854;SDS011;9053;53.358;6.382;2023-07-22T10:41:29;8.32;;;5.57;;
17854;SDS011;9053;53.358;6.382;2023-07-22T10:44:02;6.68;;;4.75;;
17854;SDS011;9053;53.358;6.382;2023-07-22T10:46:37;6.53;;;5.15;;
17854;SDS011;9053;53.358;6.382;2023-07-22T10:49:10;7.88;;;5.07;;
17854;SDS011;9053;53.358;6.382;2023-07-22T10:51:47;7.05;;;5.38;;
17854;SDS011;9053;53.358;6.382;2023-07-22T10:54:30;8.25;;;5.75;;
17854;SDS011;9053;53.358;6.382;2023-07-22T10:57:04;7.85;;;5.82;;
17854;SDS011;9053;53.358;6.382;2023-07-22T10:59:55;8.00;;;5.43;;
17854;SDS011;9053;53.358;6.382;2023-07-22T11:02:26;8.60;;;5.65;;
17854;SDS011;9053;53.358;6.382;2023-07-22T11:04:57;8.40;;;5.50;;
17854;SDS011;9053;53.358;6.382;2023-07-22T11:07:31;7.43;;;5.38;;
17854;SDS011;9053;53.358;6.382;2023-07-22T11:10:13;7.22;;;5.15;;
17854;SDS011;9053;53.358;6.382;2023-07-22T11:12:48;6.97;;;4.72;;
17854;SDS011;9053;53.358;6.382;2023-07-22T11:15:21;8.30;;;5.50;;
17854;SDS011;9053;53.358;6.382;2023-07-22T11:17:51;6.95;;;5.40;;
17854;SDS011;9053;53.358;6.382;2023-07-22T11:20:21;8.15;;;6.05;;
17854;SDS011;9053;53.358;6.382;2023-07-22T11:22:51;7.22;;;5.43;;
17854;SDS011;9053;53.358;6.382;2023-07-22T11:25:21;8.45;;;6.13;;
17854;SDS011;9053;53.358;6.382;2023-07-22T11:27:52;7.22;;;5.15;;
17854;SDS011;9053;53.358;6.382;2023-07-22T11:30:26;6.88;;;5.50;;
17854;SDS011;9053;53.358;6.382;2023-07-22T11:32:57;6.57;;;5.43;;
17854;SDS011;9053;53.358;6.382;2023-07-22T11:35:28;8.95;;;6.07;;
17854;SDS011;9053;53.358;6.382;2023-07-22T11:38:00;11.70;;;7.65;;
17854;SDS011;9053;53.358;6.382;2023-07-22T11:40:34;7.60;;;5.75;;
17854;SDS011;9053;53.358;6.382;2023-07-22T11:43:04;6.32;;;5.03;;
17854;SDS011;9053;53.358;6.382;2023-07-22T11:45:40;7.47;;;5.78;;
17854;SDS011;9053;53.358;6.382;2023-07-22T11:48:12;9.15;;;5.95;;
17854;SDS011;9053;53.358;6.382;2023-07-22T11:50:42;9.45;;;6.38;;
17854;SDS011;9053;53.358;6.382;2023-07-22T11:53:12;5.97;;;5.05;;
17854;SDS011;9053;53.358;6.382;2023-07-22T11:55:42;5.82;;;4.13;;
17854;SDS011;9053;53.358;6.382;2023-07-22T11:58:13;4.93;;;4.40;;
17854;SDS011;9053;53.358;6.382;2023-07-22T12:00:45;5.07;;;4.45;;
17854;SDS011;9053;53.358;6.382;2023-07-22T12:03:31;4.80;;;3.95;;
17854;SDS011;9053;53.358;6.382;2023-07-22T12:06:02;5.78;;;4.85;;
17854;SDS011;9053;53.358;6.382;2023-07-22T12:08:33;5.60;;;4.28;;
17854;SDS011;9053;53.358;6.382;2023-07-22T12:11:03;4.65;;;3.97;;
17854;SDS011;9053;53.358;6.382;2023-07-22T12:13:36;5.78;;;5.18;;
17854;SDS011;9053;53.358;6.382;2023-07-22T12:16:09;7.18;;;5.63;;
17854;SDS011;9053;53.358;6.382;2023-07-22T12:18:42;6.68;;;5.47;;
17854;SDS011;9053;53.358;6.382;2023-07-22T12:21:13;7.43;;;5.68;;
17854;SDS011;9053;53.358;6.382;2023-07-22T12:23:45;7.93;;;6.05;;
17854;SDS011;9053;53.358;6.382;2023-07-22T12:26:15;5.95;;;4.82;;
17854;SDS011;9053;53.358;6.382;2023-07-22T12:28:45;6.43;;;5.55;;
17854;SDS011;9053;53.358;6.382;2023-07-22T12:31:27;6.45;;;5.70;;
17854;SDS011;9053;53.358;6.382;2023-07-22T12:33:57;6.60;;;5.82;;
17854;SDS011;9053;53.358;6.382;2023-07-22T12:36:29;8.18;;;7.00;;
17854;SDS011;9053;53.358;6.382;2023-07-22T12:39:00;6.97;;;6.28;;
17854;SDS011;9053;53.358;6.382;2023-07-22T12:41:30;8.07;;;6.25;;
17854;SDS011;9053;53.358;6.382;2023-07-22T12:44:00;7.40;;;6.15;;
17854;SDS011;9053;53.358;6.382;2023-07-22T12:46:35;7.28;;;5.65;;
17854;SDS011;9053;53.358;6.382;2023-07-22T12:49:21;5.70;;;5.03;;
17854;SDS011;9053;53.358;6.382;2023-07-22T12:51:51;7.40;;;5.22;;
17854;SDS011;9053;53.358;6.382;2023-07-22T12:54:38;4.68;;;4.25;;
17854;SDS011;9053;53.358;6.382;2023-07-22T13:00:18;6.13;;;4.47;;
17854;SDS011;9053;53.358;6.382;2023-07-22T13:02:58;5.47;;;4.32;;
17854;SDS011;9053;53.358;6.382;2023-07-22T13:05:28;5.03;;;4.53;;
17854;SDS011;9053;53.358;6.382;2023-07-22T13:08:00;6.85;;;4.93;;
17854;SDS011;9053;53.358;6.382;2023-07-22T13:10:33;4.75;;;4.25;;
17854;SDS011;9053;53.358;6.382;2023-07-22T13:13:05;6.82;;;4.97;;
17854;SDS011;9053;53.358;6.382;2023-07-22T13:15:38;4.65;;;4.25;;
17854;SDS011;9053;53.358;6.382;2023-07-22T13:18:10;4.78;;;4.15;;
17854;SDS011;9053;53.358;6.382;2023-07-22T13:20:43;6.05;;;4.88;;
17854;SDS011;9053;53.358;6.382;2023-07-22T13:23:13;5.97;;;5.10;;
17854;SDS011;9053;53.358;6.382;2023-07-22T13:25:43;5.65;;;4.72;;
17854;SDS011;9053;53.358;6.382;2023-07-22T13:28:13;5.97;;;4.63;;
17854;SDS011;9053;53.358;6.382;2023-07-22T13:30:43;6.07;;;5.47;;
17854;SDS011;9053;53.358;6.382;2023-07-22T13:33:16;5.00;;;4.50;;
17854;SDS011;9053;53.358;6.382;2023-07-22T13:35:46;4.97;;;4.43;;
17854;SDS011;9053;53.358;6.382;2023-07-22T13:38:17;4.88;;;4.30;;
17854;SDS011;9053;53.358;6.382;2023-07-22T13:40:47;5.88;;;4.50;;
17854;SDS011;9053;53.358;6.382;2023-07-22T13:43:17;7.38;;;5.93;;
17854;SDS011;9053;53.358;6.382;2023-07-22T13:45:48;7.15;;;6.35;;
17854;SDS011;9053;53.358;6.382;2023-07-22T13:48:20;6.53;;;5.60;;
17854;SDS011;9053;53.358;6.382;2023-07-22T13:50:50;7.07;;;5.55;;
17854;SDS011;9053;53.358;6.382;2023-07-22T13:53:30;4.55;;;4.13;;
17854;SDS011;9053;53.358;6.382;2023-07-22T13:56:01;4.00;;;3.60;;
17854;SDS011;9053;53.358;6.382;2023-07-22T13:58:39;3.92;;;3.08;;
17854;SDS011;9053;53.358;6.382;2023-07-22T14:01:20;3.50;;;2.78;;
17854;SDS011;9053;53.358;6.382;2023-07-22T14:04:02;3.35;;;2.50;;
17854;SDS011;9053;53.358;6.382;2023-07-22T14:06:31;4.18;;;2.63;;
17854;SDS011;9053;53.358;6.382;2023-07-22T14:09:01;3.47;;;2.50;;
17854;SDS011;9053;53.358;6.382;2023-07-22T14:11:31;3.55;;;2.75;;
17854;SDS011;9053;53.358;6.382;2023-07-22T14:14:01;2.90;;;2.50;;
17854;SDS011;9053;53.358;6.382;2023-07-22T14:16:31;3.78;;;2.70;;
17854;SDS011;9053;53.358;6.382;2023-07-22T14:19:03;4.85;;;3.33;;
17854;SDS011;9053;53.358;6.382;2023-07-22T14:21:33;3.28;;;2.72;;
17854;SDS011;9053;53.358;6.382;2023-07-22T14:24:04;4.68;;;3.28;;
17854;SDS011;9053;53.358;6.382;2023-07-22T14:26:34;5.30;;;3.30;;
17854;SDS011;9053;53.358;6.382;2023-07-22T14:29:06;6.03;;;3.30;;
17854;SDS011;9053;53.358;6.382;2023-07-22T14:31:55;4.28;;;2.88;;
17854;SDS011;9053;53.358;6.382;2023-07-22T14:34:28;6.28;;;3.10;;
17854;SDS011;9053;53.358;6.382;2023-07-22T14:36:58;4.78;;;3.08;;
17854;SDS011;9053;53.358;6.382;2023-07-22T14:39:27;6.10;;;3.72;;
17854;SDS011;9053;53.358;6.382;2023-07-22T14:41:58;5.43;;;3.47;;
17854;SDS011;9053;53.358;6.382;2023-07-22T14:44:28;5.20;;;3.05;;
17854;SDS011;9053;53.358;6.382;2023-07-22T14:46:58;5.53;;;3.53;;
17854;SDS011;9053;53.358;6.382;2023-07-22T14:49:30;4.38;;;3.25;;
17854;SDS011;9053;53.358;6.382;2023-07-22T14:52:01;5.68;;;3.83;;
17854;SDS011;9053;53.358;6.382;2023-07-22T14:54:31;5.25;;;4.32;;
17854;SDS011;9053;53.358;6.382;2023-07-22T14:57:01;4.82;;;3.30;;
17854;SDS011;9053;53.358;6.382;2023-07-22T14:59:31;3.90;;;3.42;;
17854;SDS011;9053;53.358;6.382;2023-07-22T15:02:04;5.43;;;3.40;;
17854;SDS011;9053;53.358;6.382;2023-07-22T15:04:37;5.63;;;4.10;;
17854;SDS011;9053;53.358;6.382;2023-07-22T15:07:07;5.05;;;3.78;;
17854;SDS011;9053;53.358;6.382;2023-07-22T15:09:37;6.50;;;4.07;;
17854;SDS011;9053;53.358;6.382;2023-07-22T15:12:07;6.03;;;4.28;;
17854;SDS011;9053;53.358;6.382;2023-07-22T15:14:40;8.30;;;4.90;;
17854;SDS011;9053;53.358;6.382;2023-07-22T15:17:10;6.75;;;4.20;;
17854;SDS011;9053;53.358;6.382;2023-07-22T15:19:42;6.80;;;4.45;;
17854;SDS011;9053;53.358;6.382;2023-07-22T15:22:12;7.25;;;4.60;;
17854;SDS011;9053;53.358;6.382;2023-07-22T15:24:42;6.68;;;4.55;;
17854;SDS011;9053;53.358;6.382;2023-07-22T15:27:12;6.32;;;4.35;;
17854;SDS011;9053;53.358;6.382;2023-07-22T15:29:42;7.97;;;4.80;;
17854;SDS011;9053;53.358;6.382;2023-07-22T15:32:12;6.72;;;4.50;;